createdAt,value
2023-02-13T00:01:00.077Z,20.67
2023-02-13T00:03:26.798Z,20.40
2023-02-13T00:05:53.422Z,20.92
2023-02-13T00:08:19.965Z,21.70
2023-02-13T00:10:48.297Z,20.65
2023-02-13T00:13:17.393Z,19.80
2023-02-13T00:15:46.059Z,20.23
2023-02-13T00:18:12.647Z,20.58
2023-02-13T00:20:39.244Z,21.52
2023-02-13T00:23:08.197Z,21.35
2023-02-13T00:25:34.751Z,21.52
2023-02-13T00:28:01.450Z,21.30
2023-02-13T00:30:28.105Z,20.08
2023-02-13T00:32:54.676Z,20.58
2023-02-13T00:35:21.245Z,19.38
2023-02-13T00:37:47.854Z,21.42
2023-02-13T00:40:17.130Z,21.35
2023-02-13T00:42:46.111Z,21.35
2023-02-13T00:45:12.695Z,20.63
2023-02-13T00:47:41.714Z,21.75
2023-02-13T00:50:08.583Z,21.13
2023-02-13T00:52:35.217Z,22.35
2023-02-13T00:55:03.842Z,21.80
2023-02-13T00:57:32.779Z,21.45
2023-02-13T01:00:01.726Z,21.30
2023-02-13T01:02:28.310Z,22.13
2023-02-13T01:04:54.881Z,20.70
2023-02-13T01:07:21.450Z,21.33
2023-02-13T01:09:50.408Z,22.20
2023-02-13T01:12:16.975Z,21.73
2023-02-13T01:14:43.512Z,22.33
2023-02-13T01:17:10.072Z,21.58
2023-02-13T01:19:36.665Z,21.05
2023-02-13T01:22:03.209Z,21.33
2023-02-13T01:24:33.275Z,21.42
2023-02-13T01:27:02.499Z,21.05
2023-02-13T01:29:29.795Z,21.20
2023-02-13T01:31:58.817Z,22.08
2023-02-13T01:34:25.575Z,21.00
2023-02-13T01:36:52.165Z,21.65
2023-02-13T01:39:18.830Z,20.10
2023-02-13T01:41:45.441Z,21.52
2023-02-13T01:44:53.638Z,20.13
2023-02-13T01:47:29.302Z,21.15
2023-02-13T01:50:08.331Z,23.23
2023-02-13T01:52:43.983Z,21.45
2023-02-13T01:55:12.009Z,21.42
2023-02-13T01:57:42.365Z,22.65
2023-02-13T02:00:12.154Z,21.92
2023-02-13T02:02:46.771Z,23.67
2023-02-13T02:05:17.095Z,23.33
2023-02-13T02:07:47.002Z,22.40
2023-02-13T02:10:17.318Z,22.95
2023-02-13T02:12:51.843Z,21.85
2023-02-13T02:15:21.439Z,22.13
2023-02-13T02:17:48.025Z,21.77
2023-02-13T02:20:57.358Z,22.40
2023-02-13T02:23:52.746Z,22.40
2023-02-13T02:26:34.570Z,22.15
2023-02-13T02:29:38.595Z,24.20
2023-02-13T02:32:32.239Z,22.10
2023-02-13T02:35:33.500Z,22.83
2023-02-13T02:38:06.027Z,23.02
2023-02-13T02:40:45.227Z,22.45
2023-02-13T02:43:32.169Z,23.08
2023-02-13T02:46:31.940Z,21.67
2023-02-13T02:49:34.861Z,22.42
2023-02-13T02:52:07.884Z,23.08
2023-02-13T02:55:02.906Z,22.75
2023-02-13T02:57:54.191Z,23.27
2023-02-13T03:00:42.773Z,22.38
2023-02-13T03:03:42.126Z,23.80
2023-02-13T03:06:15.486Z,22.85
2023-02-13T03:09:04.345Z,23.85
2023-02-13T03:11:50.122Z,22.80
2023-02-13T03:14:21.135Z,23.25
2023-02-13T03:17:07.891Z,22.75
2023-02-13T03:20:20.197Z,22.95
2023-02-13T03:23:14.036Z,22.85
2023-02-13T03:26:18.282Z,22.83
2023-02-13T03:29:10.867Z,22.95
2023-02-13T03:32:01.659Z,22.67
2023-02-13T03:34:55.048Z,24.13
2023-02-13T03:37:49.339Z,23.98
2023-02-13T03:40:37.009Z,23.42
2023-02-13T03:43:06.741Z,23.35
2023-02-13T03:45:54.057Z,23.02
2023-02-13T03:48:44.920Z,22.80
2023-02-13T03:51:18.943Z,24.02
2023-02-13T03:53:55.297Z,23.20
2023-02-13T03:56:41.801Z,23.00
2023-02-13T03:59:16.467Z,22.83
2023-02-13T04:02:22.063Z,24.55
2023-02-13T04:04:54.454Z,22.70
2023-02-13T04:07:33.305Z,23.25
2023-02-13T04:10:13.274Z,22.05
2023-02-13T04:12:42.769Z,23.80
2023-02-13T04:15:17.389Z,23.30
2023-02-13T04:17:50.244Z,23.25
2023-02-13T04:20:19.410Z,24.63
2023-02-13T04:22:48.177Z,22.73
2023-02-13T04:25:18.766Z,23.27
2023-02-13T04:27:45.540Z,22.98
2023-02-13T04:30:12.781Z,23.85
2023-02-13T04:32:39.382Z,24.17
2023-02-13T04:35:06.454Z,23.00
2023-02-13T04:37:33.014Z,23.40
2023-02-13T04:39:59.667Z,23.52
2023-02-13T04:42:28.678Z,23.58
2023-02-13T04:44:57.552Z,21.50
2023-02-13T04:47:24.152Z,23.23
2023-02-13T04:49:53.692Z,24.13
2023-02-13T04:52:22.647Z,23.40
2023-02-13T04:54:51.681Z,23.50
2023-02-13T04:57:18.334Z,25.17
2023-02-13T04:59:44.949Z,24.08
2023-02-13T05:02:11.513Z,24.10
2023-02-13T05:04:38.159Z,22.88
2023-02-13T05:07:04.723Z,23.08
2023-02-13T05:09:31.320Z,23.30
2023-02-13T05:12:00.131Z,21.83
2023-02-13T05:14:26.802Z,23.15
2023-02-13T05:16:55.617Z,22.48
2023-02-13T05:19:24.375Z,24.55
2023-02-13T05:22:09.575Z,23.52
2023-02-13T05:24:36.133Z,23.85
2023-02-13T05:27:02.752Z,22.98
2023-02-13T05:29:29.332Z,21.80
2023-02-13T05:31:58.386Z,22.45
2023-02-13T05:34:26.641Z,22.70
2023-02-13T05:36:53.749Z,23.73
2023-02-13T05:39:20.768Z,22.52
2023-02-13T05:41:48.391Z,22.30
2023-02-13T05:44:15.614Z,22.38
2023-02-13T05:46:43.232Z,22.95
2023-02-13T05:49:14.051Z,23.50
2023-02-13T05:51:43.353Z,22.38
2023-02-13T05:54:09.924Z,22.45
2023-02-13T05:56:36.772Z,23.25
2023-02-13T05:59:04.045Z,23.50
2023-02-13T06:01:33.039Z,21.93
2023-02-13T06:04:03.886Z,21.75
2023-02-13T06:06:32.921Z,21.50
2023-02-13T06:09:01.699Z,21.98
2023-02-13T06:11:30.597Z,20.85
2023-02-13T06:13:59.394Z,22.45
2023-02-13T06:16:30.436Z,21.95
2023-02-13T06:18:59.525Z,21.53
2023-02-13T06:21:26.575Z,21.27
2023-02-13T06:23:53.197Z,21.60
2023-02-13T06:26:19.916Z,21.27
2023-02-13T06:28:46.543Z,20.97
2023-02-13T06:31:13.303Z,21.17
2023-02-13T06:33:40.059Z,21.80
2023-02-13T06:36:07.127Z,21.70
2023-02-13T06:38:33.723Z,22.87
2023-02-13T06:41:07.261Z,20.70
2023-02-13T06:43:36.161Z,21.60
2023-02-13T06:46:06.708Z,22.45
2023-02-13T06:48:35.835Z,21.53
2023-02-13T06:51:02.473Z,20.98
2023-02-13T06:53:29.820Z,19.83
2023-02-13T06:56:03.944Z,21.87
2023-02-13T06:58:30.515Z,21.23
2023-02-13T07:00:57.368Z,21.23
2023-02-13T07:03:24.227Z,21.33
2023-02-13T07:05:52.135Z,21.00
2023-02-13T07:08:19.201Z,21.67
2023-02-13T07:10:45.826Z,20.77
2023-02-13T07:13:12.427Z,20.23
2023-02-13T07:15:39.053Z,20.07
2023-02-13T07:18:06.664Z,20.73
2023-02-13T07:20:34.010Z,20.63
2023-02-13T07:23:04.332Z,20.50
2023-02-13T07:25:31.687Z,19.47
2023-02-13T07:28:05.096Z,19.90
2023-02-13T07:30:33.065Z,18.87
2023-02-13T07:33:04.017Z,20.43
2023-02-13T07:35:31.507Z,20.93
2023-02-13T07:37:59.322Z,20.67
2023-02-13T07:40:28.355Z,22.40
2023-02-13T07:42:56.149Z,21.27
2023-02-13T07:45:23.008Z,20.30
2023-02-13T07:47:49.565Z,20.73
2023-02-13T07:50:16.146Z,20.17
2023-02-13T07:52:42.755Z,19.83
2023-02-13T07:55:11.576Z,20.00
2023-02-13T07:57:38.301Z,19.47
2023-02-13T08:00:07.756Z,19.75
2023-02-13T08:02:39.106Z,21.42
2023-02-13T08:05:08.550Z,20.98
2023-02-13T08:07:35.198Z,21.23
2023-02-13T08:10:20.399Z,22.53
2023-02-13T08:12:47.373Z,23.17
2023-02-13T08:15:17.990Z,21.75
2023-02-13T08:17:44.641Z,23.33
2023-02-13T08:20:12.011Z,22.63
2023-02-13T08:22:39.583Z,24.25
2023-02-13T08:25:09.726Z,24.98
2023-02-13T08:27:36.352Z,25.60
2023-02-13T08:30:06.717Z,24.38
2023-02-13T08:32:44.915Z,26.10
2023-02-13T08:35:19.619Z,24.13
2023-02-13T08:37:47.620Z,23.77
2023-02-13T08:40:14.784Z,25.23
2023-02-13T08:42:41.660Z,24.75
2023-02-13T08:45:10.562Z,25.50
2023-02-13T08:47:40.543Z,23.85
2023-02-13T08:50:08.068Z,23.88
2023-02-13T08:52:34.868Z,24.67
2023-02-13T08:55:03.492Z,24.20
2023-02-13T08:57:31.237Z,24.38
2023-02-13T09:00:00.005Z,24.58
2023-02-13T09:02:26.744Z,26.25
2023-02-13T09:04:55.896Z,28.48
2023-02-13T09:07:25.556Z,28.67
2023-02-13T09:09:52.373Z,26.85
2023-02-13T09:12:19.011Z,25.60
2023-02-13T09:14:48.090Z,26.52
2023-02-13T09:17:18.428Z,27.38
2023-02-13T09:19:46.671Z,26.08
2023-02-13T09:22:13.314Z,25.58
2023-02-13T09:24:44.824Z,24.08
2023-02-13T09:27:11.445Z,28.33
2023-02-13T09:29:38.075Z,23.52
2023-02-13T09:32:06.263Z,21.75
2023-02-13T09:34:35.230Z,22.13
2023-02-13T09:37:01.807Z,26.00
2023-02-13T09:39:28.370Z,22.33
2023-02-13T09:41:55.972Z,21.98
2023-02-13T09:44:43.542Z,21.13
2023-02-13T09:47:22.097Z,18.80
2023-02-13T09:50:16.583Z,18.38
2023-02-13T09:52:46.131Z,17.70
2023-02-13T09:55:17.614Z,17.15
2023-02-13T09:57:56.644Z,16.63
2023-02-13T10:00:32.815Z,17.88
2023-02-13T10:02:59.360Z,17.70
2023-02-13T10:05:38.140Z,16.05
2023-02-13T10:08:10.618Z,16.48
2023-02-13T10:11:21.939Z,16.23
2023-02-13T10:14:12.293Z,16.02
2023-02-13T10:16:45.112Z,15.32
2023-02-13T10:20:03.402Z,16.15
2023-02-13T10:22:33.956Z,16.45
2023-02-13T10:25:13.163Z,16.50
2023-02-13T10:27:47.223Z,15.23
2023-02-13T10:30:52.166Z,16.60
2023-02-13T10:33:26.798Z,15.18
2023-02-13T10:36:01.103Z,15.80
2023-02-13T10:38:31.767Z,15.32
2023-02-13T10:41:04.660Z,14.98
2023-02-13T10:43:46.927Z,13.35
2023-02-13T10:46:22.620Z,13.05
2023-02-13T10:48:52.163Z,13.63
2023-02-13T10:51:35.441Z,12.38
2023-02-13T10:54:30.172Z,12.75
2023-02-13T10:57:34.668Z,11.68
2023-02-13T11:00:31.404Z,12.30
2023-02-13T11:02:59.804Z,12.20
2023-02-13T11:05:37.905Z,13.13
2023-02-13T11:08:30.078Z,12.30
2023-02-13T11:10:56.594Z,11.43
2023-02-13T11:13:26.229Z,11.57
2023-02-13T11:16:03.007Z,11.93
2023-02-13T11:18:34.320Z,11.38
2023-02-13T11:21:16.632Z,11.60
2023-02-13T11:23:50.271Z,11.50
2023-02-13T11:26:32.907Z,11.25
2023-02-13T11:29:25.385Z,10.93
2023-02-13T11:32:05.597Z,10.77
2023-02-13T11:34:34.567Z,12.27
2023-02-13T11:37:15.873Z,12.82
2023-02-13T11:39:44.616Z,12.38
2023-02-13T11:42:15.440Z,12.20
2023-02-13T11:44:48.457Z,11.82
2023-02-13T11:47:16.235Z,12.30
2023-02-13T11:49:47.548Z,12.65
2023-02-13T11:52:32.616Z,12.45
2023-02-13T11:55:05.059Z,12.80
2023-02-13T11:57:35.286Z,12.00
2023-02-13T12:00:29.894Z,13.20
2023-02-13T12:02:56.729Z,12.77
2023-02-13T12:05:26.710Z,13.57
2023-02-13T12:07:57.657Z,13.15
2023-02-13T12:10:29.101Z,13.10
2023-02-13T12:12:59.313Z,12.70
2023-02-13T12:15:38.245Z,11.38
2023-02-13T12:18:10.941Z,13.07
2023-02-13T12:20:53.764Z,13.48
2023-02-13T12:24:00.549Z,11.70
2023-02-13T12:26:39.364Z,12.80
2023-02-13T12:29:36.171Z,13.77
2023-02-13T12:32:21.394Z,12.85
2023-02-13T12:34:53.904Z,13.55
2023-02-13T12:37:46.712Z,12.93
2023-02-13T12:40:27.300Z,12.38
2023-02-13T12:43:12.352Z,12.75
2023-02-13T12:46:04.872Z,12.88
2023-02-13T12:49:18.538Z,12.68
2023-02-13T12:52:09.576Z,12.70
2023-02-13T12:55:12.944Z,11.18
2023-02-13T12:57:57.129Z,12.35
2023-02-13T13:00:50.810Z,12.13
2023-02-13T13:03:20.184Z,12.50
2023-02-13T13:05:50.725Z,11.23
2023-02-13T13:08:29.899Z,11.18
2023-02-13T13:11:02.603Z,11.90
2023-02-13T13:13:48.491Z,12.38
2023-02-13T13:16:27.021Z,10.95
2023-02-13T13:19:00.786Z,11.38
2023-02-13T13:22:12.930Z,12.20
2023-02-13T13:24:55.054Z,11.77
2023-02-13T13:27:49.985Z,12.70
2023-02-13T13:30:22.747Z,11.80
2023-02-13T13:32:55.591Z,12.07
2023-02-13T13:35:24.970Z,11.88
2023-02-13T13:38:14.485Z,12.27
2023-02-13T13:40:53.668Z,11.80
2023-02-13T13:43:59.766Z,12.23
2023-02-13T13:47:05.811Z,11.85
2023-02-13T13:49:55.658Z,11.50
2023-02-13T13:52:22.593Z,12.38
2023-02-13T13:54:52.020Z,11.23
2023-02-13T13:57:20.559Z,12.02
2023-02-13T13:59:55.544Z,11.57
2023-02-13T14:02:22.124Z,12.43
2023-02-13T14:05:06.428Z,11.70
2023-02-13T14:07:38.571Z,12.85
2023-02-13T14:10:06.579Z,12.70
2023-02-13T14:12:33.245Z,12.57
2023-02-13T14:15:00.221Z,12.80
2023-02-13T14:17:45.321Z,11.65
2023-02-13T14:20:37.750Z,11.68
2023-02-13T14:23:23.965Z,11.25
2023-02-13T14:26:09.982Z,11.60
2023-02-13T14:28:37.098Z,11.68
2023-02-13T14:31:22.416Z,12.23
2023-02-13T14:34:17.000Z,12.15
2023-02-13T14:37:07.084Z,12.52
2023-02-13T14:39:37.657Z,12.10
2023-02-13T14:42:30.047Z,12.63
2023-02-13T14:44:59.672Z,12.20
2023-02-13T14:47:36.441Z,12.57
2023-02-13T14:50:14.436Z,13.05
2023-02-13T14:52:47.371Z,12.00
2023-02-13T14:55:35.036Z,11.98
2023-02-13T14:58:12.742Z,11.00
2023-02-13T15:00:51.446Z,12.45
2023-02-13T15:03:38.709Z,13.10
2023-02-13T15:06:16.649Z,13.77
2023-02-13T15:08:49.445Z,12.95
2023-02-13T15:11:36.768Z,13.35
2023-02-13T15:14:35.763Z,13.98
2023-02-13T15:17:19.622Z,13.07
2023-02-13T15:19:49.108Z,13.32
2023-02-13T15:22:25.755Z,14.02
2023-02-13T15:24:52.528Z,14.45
2023-02-13T15:27:39.294Z,13.85
2023-02-13T15:30:15.224Z,14.50
2023-02-13T15:32:54.094Z,14.10
2023-02-13T15:35:33.044Z,14.95
2023-02-13T15:38:02.863Z,13.25
2023-02-13T15:40:39.712Z,14.07
2023-02-13T15:43:23.328Z,14.82
2023-02-13T15:45:49.983Z,14.25
2023-02-13T15:48:17.736Z,15.30
2023-02-13T15:50:45.275Z,14.77
2023-02-13T15:53:16.249Z,15.90
2023-02-13T15:55:55.091Z,15.43
2023-02-13T15:58:33.269Z,15.80
2023-02-13T16:01:03.807Z,15.98
2023-02-13T16:03:34.594Z,16.05
2023-02-13T16:06:01.783Z,16.38
2023-02-13T16:08:33.680Z,16.88
2023-02-13T16:11:17.062Z,15.77
2023-02-13T16:14:16.509Z,17.05
2023-02-13T16:16:43.476Z,16.67
2023-02-13T16:19:24.136Z,16.23
2023-02-13T16:21:55.973Z,15.93
2023-02-13T16:24:24.533Z,16.63
2023-02-13T16:26:51.710Z,16.30
2023-02-13T16:29:22.167Z,16.65
2023-02-13T16:31:50.416Z,15.82
2023-02-13T16:34:31.571Z,16.45
2023-02-13T16:36:58.203Z,16.80
2023-02-13T16:39:35.563Z,17.15
2023-02-13T16:42:14.162Z,17.83
2023-02-13T16:44:42.987Z,17.95
2023-02-13T16:47:28.637Z,17.50
2023-02-13T16:49:57.293Z,17.85
2023-02-13T16:52:26.773Z,18.17
2023-02-13T16:54:57.006Z,18.15
2023-02-13T16:57:30.845Z,19.00
2023-02-13T17:00:04.002Z,19.38
2023-02-13T17:02:38.778Z,18.45
2023-02-13T17:05:25.895Z,19.00
2023-02-13T17:07:56.922Z,18.60
2023-02-13T17:10:33.948Z,20.40
2023-02-13T17:13:09.324Z,20.42
2023-02-13T17:15:35.921Z,19.15
2023-02-13T17:18:02.608Z,20.95
2023-02-13T17:20:34.026Z,23.45
2023-02-13T17:23:04.129Z,23.38
2023-02-13T17:25:38.120Z,22.45
2023-02-13T17:28:18.688Z,19.75
2023-02-13T17:30:46.319Z,21.80
2023-02-13T17:33:23.601Z,22.25
2023-02-13T17:35:50.839Z,21.10
2023-02-13T17:38:17.557Z,21.83
2023-02-13T17:40:45.494Z,21.60
2023-02-13T17:43:13.849Z,22.13
2023-02-13T17:45:40.882Z,22.65
2023-02-13T17:48:07.629Z,21.88
2023-02-13T17:50:34.891Z,22.00
2023-02-13T17:53:18.422Z,21.13
2023-02-13T17:55:45.013Z,22.20
2023-02-13T17:58:11.532Z,21.65
2023-02-13T18:00:38.237Z,21.63
2023-02-13T18:03:04.868Z,21.48
2023-02-13T18:05:33.212Z,20.40
2023-02-13T18:08:03.816Z,21.10
2023-02-13T18:10:33.419Z,21.48
2023-02-13T18:13:06.096Z,20.48
2023-02-13T18:15:42.629Z,21.33
2023-02-13T18:18:12.050Z,19.63
2023-02-13T18:20:41.576Z,20.58
2023-02-13T18:23:11.409Z,18.95
2023-02-13T18:25:42.830Z,18.33
2023-02-13T18:28:09.477Z,19.42
2023-02-13T18:30:36.015Z,22.80
2023-02-13T18:33:05.699Z,21.13
2023-02-13T18:35:33.401Z,20.60
2023-02-13T18:37:59.998Z,21.35
2023-02-13T18:40:26.898Z,21.13
2023-02-13T18:42:53.735Z,23.77
2023-02-13T18:45:20.425Z,22.60
2023-02-13T18:47:46.989Z,22.13
2023-02-13T18:50:15.747Z,20.40
2023-02-13T18:52:42.330Z,20.48
2023-02-13T18:55:11.193Z,19.42
2023-02-13T18:57:37.830Z,20.80
2023-02-13T19:00:05.559Z,20.38
2023-02-13T19:02:33.534Z,18.55
2023-02-13T19:05:02.757Z,19.58
2023-02-13T19:07:31.732Z,19.65
2023-02-13T19:09:58.361Z,18.50
2023-02-13T19:12:27.433Z,21.13
2023-02-13T19:14:54.032Z,21.08
2023-02-13T19:17:20.630Z,21.30
2023-02-13T19:19:50.428Z,20.77
2023-02-13T19:22:17.401Z,21.60
2023-02-13T19:24:44.143Z,21.85
2023-02-13T19:27:11.396Z,20.40
2023-02-13T19:29:38.012Z,19.20
2023-02-13T19:32:07.643Z,21.00
2023-02-13T19:34:34.679Z,19.73
2023-02-13T19:37:04.285Z,19.33
2023-02-13T19:39:30.864Z,18.00
2023-02-13T19:41:57.466Z,17.88
2023-02-13T19:44:26.543Z,17.90
2023-02-13T19:46:53.359Z,18.17
2023-02-13T19:49:22.334Z,18.20
2023-02-13T19:51:48.985Z,17.38
2023-02-13T19:54:15.619Z,17.70
2023-02-13T19:56:42.343Z,17.85
2023-02-13T19:59:13.345Z,18.55
2023-02-13T20:01:43.827Z,17.42
2023-02-13T20:04:16.157Z,16.80
2023-02-13T20:06:42.830Z,20.65
2023-02-13T20:09:12.853Z,28.00
2023-02-13T20:11:41.467Z,25.67
2023-02-13T20:14:11.692Z,27.55
2023-02-13T20:16:38.559Z,26.77
2023-02-13T20:19:09.556Z,29.27
2023-02-13T20:21:36.872Z,27.13
2023-02-13T20:24:07.874Z,28.38
2023-02-13T20:26:37.157Z,27.08
2023-02-13T20:29:03.819Z,27.88
2023-02-13T20:31:30.749Z,27.48
2023-02-13T20:33:58.288Z,28.17
2023-02-13T20:36:27.549Z,26.67
2023-02-13T20:38:57.394Z,28.33
2023-02-13T20:41:28.795Z,28.30
2023-02-13T20:44:03.824Z,30.48
2023-02-13T20:46:32.219Z,28.05
2023-02-13T20:48:58.824Z,29.23
2023-02-13T20:51:25.674Z,26.88
2023-02-13T20:53:52.308Z,27.35
2023-02-13T20:56:21.832Z,27.10
2023-02-13T20:58:50.632Z,27.55
2023-02-13T21:01:28.149Z,28.13
2023-02-13T21:03:56.436Z,25.83
2023-02-13T21:06:31.923Z,26.70
2023-02-13T21:08:58.898Z,28.58
2023-02-13T21:11:31.299Z,26.85
2023-02-13T21:13:58.320Z,31.35
2023-02-13T21:16:29.597Z,35.75
2023-02-13T21:18:58.863Z,32.63
2023-02-13T21:21:29.173Z,33.72
2023-02-13T21:23:57.809Z,29.27
2023-02-13T21:26:25.662Z,28.50
2023-02-13T21:28:52.797Z,23.13
2023-02-13T21:31:23.857Z,22.55
2023-02-13T21:33:52.985Z,20.30
2023-02-13T21:36:21.788Z,21.08
2023-02-13T21:38:50.818Z,19.00
2023-02-13T21:41:18.743Z,19.25
2023-02-13T21:43:48.352Z,18.25
2023-02-13T21:46:19.787Z,19.05
2023-02-13T21:48:47.747Z,17.88
2023-02-13T21:51:16.817Z,18.65
2023-02-13T21:53:48.327Z,18.70
2023-02-13T21:56:18.362Z,17.48
2023-02-13T21:58:45.750Z,18.45
2023-02-13T22:01:30.653Z,17.02
2023-02-13T22:04:01.158Z,18.50
2023-02-13T22:06:30.244Z,17.52
2023-02-13T22:09:11.330Z,17.65
2023-02-13T22:11:38.468Z,16.58
2023-02-13T22:14:07.880Z,18.05
2023-02-13T22:16:37.611Z,17.97
2023-02-13T22:19:09.469Z,17.45
2023-02-13T22:21:36.689Z,17.08
2023-02-13T22:24:03.496Z,17.23
2023-02-13T22:26:38.174Z,17.10
2023-02-13T22:29:06.736Z,17.10
2023-02-13T22:31:34.182Z,17.53
2023-02-13T22:34:06.984Z,17.67
2023-02-13T22:36:35.260Z,17.23
2023-02-13T22:39:01.892Z,17.60
2023-02-13T22:41:30.776Z,19.07
2023-02-13T22:43:57.591Z,18.37
2023-02-13T22:46:29.998Z,18.33
2023-02-13T22:48:57.362Z,17.87
2023-02-13T22:51:27.654Z,17.30
2023-02-13T22:53:55.838Z,17.93
2023-02-13T22:56:23.375Z,18.90
2023-02-13T22:58:50.139Z,17.67
2023-02-13T23:01:23.128Z,18.33
2023-02-13T23:03:50.823Z,18.37
2023-02-13T23:06:17.987Z,18.23
2023-02-13T23:08:45.461Z,18.70
2023-02-13T23:11:35.303Z,18.03
2023-02-13T23:14:04.640Z,18.07
2023-02-13T23:16:50.347Z,18.13
2023-02-13T23:19:17.006Z,17.07
2023-02-13T23:21:45.822Z,17.60
2023-02-13T23:24:12.438Z,18.03
2023-02-13T23:26:39.168Z,17.80
2023-02-13T23:29:08.290Z,18.17
2023-02-13T23:31:34.973Z,17.90
2023-02-13T23:34:01.762Z,17.97
2023-02-13T23:36:28.694Z,17.30
2023-02-13T23:38:55.301Z,18.87
2023-02-13T23:41:21.901Z,19.33
2023-02-13T23:43:48.463Z,17.87
2023-02-13T23:46:15.036Z,17.87
2023-02-13T23:48:41.584Z,18.10
2023-02-13T23:51:08.119Z,17.40
2023-02-13T23:53:38.133Z,17.27
2023-02-13T23:56:05.376Z,16.87
2023-02-13T23:58:31.966Z,17.33
